Time;durP1;ratioP1;P1;durP2;ratioP2;P2;SDS_P1;SDS_P2;PMS_P1;PMS_P2;Temp;Humidity;BMP_temperature;BMP_pressure;BME280_temperature;BME280_humidity;BME280_pressure;Samples;Min_cycle;Max_cycle;Signal;HPM_P1;HPM_P2
2023/01/10 00:00:34;;;;;;;18.08;2.30;;;;;;;5.95;100.00;101258.59;5053050;28;20457;-82
2023/01/10 00:03:05;;;;;;;15.50;2.78;;;;;;;5.98;100.00;101255.78;5054640;28;20033;-80
2023/01/10 00:05:31;;;;;;;21.20;3.13;;;;;;;5.97;100.00;101265.53;5053278;28;20458;-80
2023/01/10 00:07:57;;;;;;;19.33;2.97;;;;;;;5.99;100.00;101260.13;5036918;28;20064;-79
2023/01/10 00:10:23;;;;;;;15.00;2.90;;;;;;;6.01;100.00;101258.22;5054788;28;20033;-82
2023/01/10 00:15:36;;;;;;;16.90;3.03;;;;;;;6.01;100.00;101271.44;5053727;28;20075;-80
2023/01/10 00:18:02;;;;;;;18.52;2.58;;;;;;;5.99;100.00;101268.91;5053728;28;20052;-79
2023/01/10 00:20:28;;;;;;;14.27;3.08;;;;;;;6.00;100.00;101273.25;5051883;28;20413;-81
2023/01/10 00:22:54;;;;;;;18.02;3.85;;;;;;;5.98;100.00;101276.94;5053572;28;20108;-79
2023/01/10 00:25:20;;;;;;;19.55;2.63;;;;;;;5.97;100.00;101272.56;5051956;28;20029;-80
2023/01/10 00:28:18;;;;;;;23.58;2.95;;;;;;;5.93;100.00;101274.56;5057443;28;20037;-80
2023/01/10 00:30:38;;;;;;;20.83;3.67;;;;;;;5.94;100.00;101284.19;5056675;28;20389;-80
2023/01/10 00:33:04;;;;;;;18.38;2.95;;;;;;;5.98;100.00;101296.25;5055718;28;20028;-80
2023/01/10 00:35:30;;;;;;;17.67;3.55;;;;;;;6.00;100.00;101291.75;5056781;28;20528;-80
2023/01/10 00:38:04;;;;;;;21.27;3.33;;;;;;;6.10;100.00;101307.00;5056599;28;20103;-79
2023/01/10 00:40:30;;;;;;;24.88;3.15;;;;;;;6.14;100.00;101304.06;5057452;28;20127;-81
2023/01/10 00:45:40;;;;;;;18.23;2.83;;;;;;;6.12;100.00;101300.66;5055676;28;20450;-80
2023/01/10 00:48:05;;;;;;;26.65;2.80;;;;;;;6.13;100.00;101315.56;5056491;28;20123;-78
2023/01/10 00:50:31;;;;;;;17.67;3.15;;;;;;;6.08;100.00;101308.91;5054899;28;20225;-79
2023/01/10 00:52:56;;;;;;;18.00;3.25;;;;;;;6.04;100.00;101323.25;5038000;28;20133;-78
2023/01/10 00:55:21;;;;;;;21.20;3.63;;;;;;;6.02;100.00;101311.91;5054649;28;20025;-79
2023/01/10 00:57:47;;;;;;;20.52;3.65;;;;;;;6.04;100.00;101320.59;5056015;28;20108;-80
2023/01/10 01:00:12;;;;;;;22.20;2.70;;;;;;;6.07;100.00;101318.59;5055949;28;20029;-80
2023/01/10 01:02:38;;;;;;;22.55;2.90;;;;;;;6.07;100.00;101325.69;5055614;28;20393;-79
2023/01/10 01:05:04;;;;;;;16.60;3.38;;;;;;;6.06;100.00;101327.50;5055092;28;20037;-79
2023/01/10 01:07:32;;;;;;;20.42;2.83;;;;;;;6.02;100.00;101323.34;5055437;28;20044;-79
2023/01/10 01:12:41;;;;;;;14.75;2.72;;;;;;;6.03;100.00;101338.25;5056534;28;20551;-83
2023/01/10 01:15:07;;;;;;;21.65;3.03;;;;;;;6.04;100.00;101341.72;5055892;28;20044;-82
2023/01/10 01:17:32;;;;;;;20.85;3.42;;;;;;;6.05;100.00;101346.09;5055476;28;20500;-83
2023/01/10 01:19:58;;;;;;;29.98;3.38;;;;;;;6.09;100.00;101345.78;5056290;28;20100;-82
2023/01/10 01:22:23;;;;;;;30.90;3.33;;;;;;;6.11;100.00;101348.31;5055593;28;20116;-82
2023/01/10 01:24:48;;;;;;;26.67;3.33;;;;;;;6.13;100.00;101357.00;5056238;28;20029;-83
2023/01/10 01:27:14;;;;;;;21.30;2.92;;;;;;;6.13;100.00;101352.53;5057846;28;20033;-83
2023/01/10 01:29:39;;;;;;;22.42;2.90;;;;;;;6.14;100.00;101358.69;5057896;28;20033;-82
2023/01/10 01:32:05;;;;;;;26.00;3.42;;;;;;;6.14;100.00;101356.06;5058619;28;20045;-83
2023/01/10 01:34:30;;;;;;;27.50;3.95;;;;;;;6.13;100.00;101368.41;5058718;28;20033;-82
2023/01/10 01:36:57;;;;;;;20.58;3.05;;;;;;;6.12;100.00;101365.84;5057177;28;20473;-82
2023/01/10 01:39:22;;;;;;;26.65;3.55;;;;;;;6.15;100.00;101365.66;5055472;28;20037;-82
2023/01/10 01:41:57;;;;;;;16.60;3.60;;;;;;;6.12;100.00;101368.50;5056055;28;20087;-82
2023/01/10 01:44:28;;;;;;;29.15;3.75;;;;;;;6.16;100.00;101367.38;5055872;28;20033;-83
2023/01/10 01:47:13;;;;;;;30.00;3.88;;;;;;;6.20;100.00;101386.53;5054475;28;20071;-83
2023/01/10 01:49:41;;;;;;;27.52;4.68;;;;;;;6.16;100.00;101377.94;5055426;28;20075;-82
2023/01/10 01:52:21;;;;;;;16.17;3.00;;;;;;;6.16;100.00;101375.28;5055583;28;20056;-82
2023/01/10 01:54:47;;;;;;;23.10;3.28;;;;;;;6.14;100.00;101378.03;5055711;28;20416;-82
2023/01/10 01:57:20;;;;;;;28.20;3.70;;;;;;;6.18;100.00;101384.84;5055259;28;20033;-82
2023/01/10 01:59:48;;;;;;;15.75;3.50;;;;;;;6.20;100.00;101395.31;5055869;28;20036;-83
2023/01/10 02:02:36;;;;;;;26.75;4.55;;;;;;;6.21;100.00;101388.22;5055591;28;20098;-83
2023/01/10 02:05:07;;;;;;;32.95;4.45;;;;;;;6.22;100.00;101405.78;5054873;28;20025;-82
2023/01/10 02:07:36;;;;;;;23.83;3.67;;;;;;;6.20;100.00;101402.38;5055334;28;20116;-83
2023/01/10 02:10:14;;;;;;;28.25;4.22;;;;;;;6.16;100.00;101399.06;5053781;28;20465;-83
2023/01/10 02:12:41;;;;;;;40.78;4.50;;;;;;;6.20;100.00;101402.38;5054884;28;20064;-83
2023/01/10 02:15:08;;;;;;;18.60;3.50;;;;;;;6.21;100.00;101402.28;5054643;28;20040;-83
2023/01/10 02:17:34;;;;;;;28.38;3.95;;;;;;;6.19;100.00;101409.44;5055523;28;20063;-83
2023/01/10 02:20:04;;;;;;;19.77;3.53;;;;;;;6.22;100.00;101398.69;5055056;28;20116;-83
2023/01/10 02:23:07;;;;;;;29.52;3.70;;;;;;;6.18;100.00;101400.69;5054650;28;20032;-81
2023/01/10 02:25:51;;;;;;;22.08;3.38;;;;;;;6.16;100.00;101397.28;5054490;28;20025;-83
2023/01/10 02:28:34;;;;;;;18.75;3.25;;;;;;;6.15;100.00;101408.81;5055089;28;20068;-83
2023/01/10 02:31:38;;;;;;;27.02;4.57;;;;;;;6.17;100.00;101408.72;5054374;28;20545;-83
2023/01/10 02:34:25;;;;;;;24.58;4.07;;;;;;;6.14;100.00;101412.38;5038758;28;20477;-82
2023/01/10 02:37:07;;;;;;;31.80;3.92;;;;;;;6.13;100.00;101421.25;5054667;28;20071;-82
2023/01/10 02:39:44;;;;;;;24.35;3.83;;;;;;;6.14;100.00;101420.31;5054468;28;20376;-81
2023/01/10 02:42:21;;;;;;;24.08;4.00;;;;;;;6.22;100.00;101437.47;5054702;28;20025;-83
2023/01/10 02:44:59;;;;;;;19.80;3.03;;;;;;;6.21;100.00;101436.66;5054376;28;20025;-82
2023/01/10 02:47:24;;;;;;;25.60;5.20;;;;;;;6.23;100.00;101433.91;5052669;28;20032;-82
2023/01/10 02:49:51;;;;;;;24.45;3.63;;;;;;;6.25;100.00;101450.50;5052048;28;20037;-82
2023/01/10 02:52:29;;;;;;;18.05;2.95;;;;;;;6.25;100.00;101450.50;5054218;28;20064;-82
2023/01/10 02:55:00;;;;;;;20.73;3.17;;;;;;;6.23;100.00;101434.75;5054262;28;20124;-82
2023/01/10 02:57:53;;;;;;;25.75;3.40;;;;;;;6.14;100.00;101435.31;5054357;28;20025;-82
2023/01/10 03:00:56;;;;;;;23.88;3.67;;;;;;;6.04;100.00;101436.84;5054300;28;20059;-82
2023/01/10 03:03:50;;;;;;;29.23;3.60;;;;;;;5.99;100.00;101435.31;5047513;28;20059;-82
2023/01/10 03:06:36;;;;;;;16.60;3.10;;;;;;;5.93;100.00;101433.03;5053994;28;20074;-85
2023/01/10 03:09:15;;;;;;;25.17;3.38;;;;;;;5.83;100.00;101445.94;5053060;28;20072;-82
2023/01/10 03:11:45;;;;;;;26.30;3.90;;;;;;;5.80;100.00;101447.94;5054548;28;20057;-82
2023/01/10 03:14:22;;;;;;;29.63;4.03;;;;;;;5.80;100.00;101446.13;5052974;28;20094;-85
2023/01/10 03:17:09;;;;;;;28.05;3.53;;;;;;;5.78;100.00;101455.94;5052667;28;20480;-83
2023/01/10 03:19:43;;;;;;;19.38;3.53;;;;;;;5.79;100.00;101451.50;5054304;28;20487;-83
2023/01/10 03:22:10;;;;;;;32.25;4.40;;;;;;;5.74;100.00;101448.31;5054227;28;20032;-82
2023/01/10 03:24:41;;;;;;;21.92;3.50;;;;;;;5.67;100.00;101449.63;5055259;28;20120;-82
2023/01/10 03:27:35;;;;;;;40.33;3.78;;;;;;;5.57;100.00;101444.88;5060346;28;20033;-83
2023/01/10 03:30:18;;;;;;;27.70;4.03;;;;;;;5.54;100.00;101458.28;5055687;28;20075;-83
2023/01/10 03:32:44;;;;;;;21.70;3.28;;;;;;;5.53;100.00;101458.38;5055979;28;20055;-83
2023/01/10 03:35:11;;;;;;;23.88;4.15;;;;;;;5.50;100.00;101464.66;5056533;28;20470;-83
2023/01/10 03:37:52;;;;;;;24.60;3.63;;;;;;;5.45;100.00;101472.88;5052685;28;20037;-83
2023/01/10 03:40:32;;;;;;;24.50;3.53;;;;;;;5.40;100.00;101467.00;5053823;28;20466;-82
2023/01/10 03:46:12;;;;;;;27.10;4.10;;;;;;;5.30;100.00;101473.78;5053182;28;20556;-83
2023/01/10 03:48:41;;;;;;;28.77;3.55;;;;;;;5.40;100.00;101481.97;5053471;28;20032;-84
2023/01/10 03:51:07;;;;;;;21.13;3.38;;;;;;;5.37;100.00;101476.88;5053385;28;20060;-84
2023/01/10 03:53:33;;;;;;;24.55;4.25;;;;;;;5.36;100.00;101476.03;5053974;28;20136;-83
2023/01/10 03:55:59;;;;;;;23.55;3.50;;;;;;;5.37;100.00;101482.16;5053394;28;20037;-83
2023/01/10 03:58:25;;;;;;;28.23;4.32;;;;;;;5.34;100.00;101493.75;5053909;28;20025;-83
2023/01/10 04:00:50;;;;;;;32.03;3.70;;;;;;;5.25;100.00;101479.28;5054602;28;20517;-83
2023/01/10 04:03:16;;;;;;;30.63;3.97;;;;;;;5.20;100.00;101491.06;5057407;28;20060;-83
2023/01/10 04:05:41;;;;;;;19.25;3.00;;;;;;;5.14;100.00;101489.63;5057375;28;20029;-83
2023/01/10 04:08:07;;;;;;;20.00;3.45;;;;;;;5.05;100.00;101485.72;5057661;28;20039;-84
2023/01/10 04:10:32;;;;;;;26.27;3.67;;;;;;;5.11;100.00;101492.44;5057520;28;20131;-83
2023/01/10 04:13:01;;;;;;;25.45;4.35;;;;;;;5.04;100.00;101491.09;5057272;28;20079;-83
2023/01/10 04:15:27;;;;;;;39.35;5.40;;;;;;;4.95;100.00;101493.28;5057500;28;20029;-83
2023/01/10 04:17:52;;;;;;;28.23;4.38;;;;;;;4.88;100.00;101491.97;5057292;28;20029;-83
2023/01/10 04:20:18;;;;;;;19.48;3.22;;;;;;;4.88;100.00;101513.06;5057170;28;20029;-83
2023/01/10 04:22:48;;;;;;;20.15;3.10;;;;;;;4.87;100.00;101526.34;5056408;28;20402;-83
2023/01/10 04:25:14;;;;;;;25.08;4.45;;;;;;;4.89;100.00;101516.53;5056874;28;20441;-82
2023/01/10 04:27:40;;;;;;;23.45;3.65;;;;;;;4.90;100.00;101513.81;5057100;28;20029;-83
2023/01/10 04:30:06;;;;;;;27.48;3.75;;;;;;;4.87;100.00;101505.22;5057106;28;20035;-83
2023/01/10 04:32:32;;;;;;;30.98;3.83;;;;;;;4.83;100.00;101501.91;5057553;28;20074;-83
2023/01/10 04:34:57;;;;;;;19.75;3.17;;;;;;;4.76;100.00;101508.44;5057116;28;20116;-83
2023/01/10 04:37:22;;;;;;;32.10;3.92;;;;;;;4.71;100.00;101508.69;5057044;28;20044;-83
2023/01/10 04:39:48;;;;;;;31.63;3.78;;;;;;;4.65;100.00;101506.41;5057298;28;20029;-82
2023/01/10 04:42:15;;;;;;;27.10;3.67;;;;;;;4.58;100.00;101526.13;5056874;28;20033;-82
2023/01/10 04:44:40;;;;;;;16.70;2.88;;;;;;;4.60;100.00;101524.28;5057671;28;20139;-82
2023/01/10 04:47:06;;;;;;;33.83;4.38;;;;;;;4.61;100.00;101541.78;5062314;28;20533;-82
2023/01/10 04:49:32;;;;;;;27.63;3.72;;;;;;;4.59;100.00;101551.56;5056455;28;20136;-82
2023/01/10 04:51:58;;;;;;;28.27;3.95;;;;;;;4.52;100.00;101561.59;5056843;28;20168;-82
2023/01/10 04:54:23;;;;;;;31.23;4.43;;;;;;;4.48;100.00;101560.06;5055476;28;20043;-82
2023/01/10 04:56:49;;;;;;;20.38;3.80;;;;;;;4.47;100.00;101560.97;5056894;28;20037;-82
2023/01/10 04:59:14;;;;;;;18.50;3.00;;;;;;;4.51;100.00;101559.00;5056354;28;20444;-82
2023/01/10 05:01:40;;;;;;;22.95;4.05;;;;;;;4.51;100.00;101551.97;5056299;28;20110;-82
2023/01/10 05:04:06;;;;;;;30.10;3.80;;;;;;;4.56;100.00;101554.38;5056158;28;20480;-82
2023/01/10 05:06:31;;;;;;;17.50;3.28;;;;;;;4.62;100.00;101554.03;5056374;28;20068;-82
2023/01/10 05:08:57;;;;;;;28.27;4.57;;;;;;;4.56;100.00;101552.56;5056833;28;20073;-82
2023/01/10 05:11:23;;;;;;;22.20;3.40;;;;;;;4.53;100.00;101554.53;5055843;28;20373;-82
2023/01/10 05:13:49;;;;;;;29.58;3.50;;;;;;;4.46;100.00;101559.25;5056856;28;20063;-84
2023/01/10 05:16:15;;;;;;;26.98;4.25;;;;;;;4.37;100.00;101565.91;5057111;28;20033;-82
2023/01/10 05:18:40;;;;;;;27.27;4.03;;;;;;;4.33;100.00;101569.63;5060071;28;20033;-82
2023/01/10 05:21:08;;;;;;;27.40;3.58;;;;;;;4.26;100.00;101570.88;5054648;28;20031;-83
2023/01/10 05:23:34;;;;;;;22.80;3.67;;;;;;;4.21;100.00;101573.75;5056044;28;20033;-83
2023/01/10 05:26:13;;;;;;;18.55;3.95;;;;;;;4.17;100.00;101589.78;5055538;28;20037;-84
2023/01/10 05:28:39;;;;;;;32.30;4.00;;;;;;;4.26;100.00;101599.84;5056639;28;20028;-83
2023/01/10 05:31:06;;;;;;;29.00;4.00;;;;;;;4.29;100.00;101598.84;5056064;28;20113;-83
2023/01/10 05:33:32;;;;;;;27.80;3.53;;;;;;;4.28;100.00;101589.22;5054448;28;20116;-84
2023/01/10 05:36:00;;;;;;;36.63;4.22;;;;;;;4.18;100.00;101584.44;5055544;28;20120;-83
2023/01/10 05:38:25;;;;;;;22.40;3.42;;;;;;;4.16;100.00;101590.72;5056362;28;20029;-84
2023/01/10 05:40:55;;;;;;;31.75;4.32;;;;;;;4.17;100.00;101605.59;5056549;28;20451;-84
2023/01/10 05:43:20;;;;;;;22.05;2.75;;;;;;;4.24;100.00;101607.84;5055845;28;20047;-84
2023/01/10 05:45:46;;;;;;;30.48;3.95;;;;;;;4.22;100.00;101607.06;5055859;28;20033;-83
2023/01/10 05:48:11;;;;;;;29.65;4.20;;;;;;;4.24;100.00;101597.28;5058771;28;20041;-83
2023/01/10 05:50:36;;;;;;;22.30;4.38;;;;;;;4.35;100.00;101609.06;5061793;28;20030;-85
2023/01/10 05:53:04;;;;;;;25.35;3.40;;;;;;;4.37;100.00;101607.19;5059297;28;20056;-84
2023/01/10 05:55:30;;;;;;;20.45;3.63;;;;;;;4.40;100.00;101607.91;5055712;28;20124;-83
2023/01/10 05:57:55;;;;;;;26.48;4.35;;;;;;;4.39;100.00;101619.34;5055292;28;20423;-80
2023/01/10 06:00:21;;;;;;;25.17;3.35;;;;;;;4.38;100.00;101616.81;5055456;28;20037;-83
2023/01/10 06:02:47;;;;;;;21.33;3.38;;;;;;;4.38;100.00;101622.06;5054834;28;20041;-84
2023/01/10 06:05:12;;;;;;;24.88;3.75;;;;;;;4.34;100.00;101626.63;5055203;28;20060;-82
2023/01/10 06:07:37;;;;;;;30.35;3.67;;;;;;;4.24;100.00;101618.38;5055078;28;20492;-82
2023/01/10 06:10:03;;;;;;;35.45;3.65;;;;;;;4.14;100.00;101614.50;5054742;28;20045;-83
2023/01/10 06:12:28;;;;;;;22.48;4.22;;;;;;;4.08;100.00;101601.66;5054494;28;20485;-83
2023/01/10 06:14:54;;;;;;;32.33;5.20;;;;;;;4.00;100.00;101603.81;5054853;28;20037;-84
2023/01/10 06:17:19;;;;;;;21.75;4.05;;;;;;;4.00;100.00;101614.34;5055236;28;20031;-83
2023/01/10 06:19:45;;;;;;;21.10;3.33;;;;;;;3.96;100.00;101618.91;5054747;28;20488;-82
2023/01/10 06:22:10;;;;;;;26.20;3.65;;;;;;;3.86;100.00;101626.41;5055089;28;20111;-82
2023/01/10 06:24:35;;;;;;;22.15;3.30;;;;;;;3.79;100.00;101625.03;5053653;28;20112;-83
2023/01/10 06:27:01;;;;;;;20.42;3.92;;;;;;;3.73;100.00;101632.38;5055401;28;20037;-81
2023/01/10 06:29:26;;;;;;;24.10;3.40;;;;;;;3.62;100.00;101636.38;5055448;28;20461;-82
2023/01/10 06:31:52;;;;;;;28.55;3.45;;;;;;;3.49;100.00;101635.25;5054972;28;20076;-82
2023/01/10 06:34:17;;;;;;;30.83;4.43;;;;;;;3.40;100.00;101646.22;5054638;28;20076;-80
2023/01/10 06:36:42;;;;;;;28.05;3.58;;;;;;;3.29;100.00;101647.59;5054456;28;20057;-81
2023/01/10 06:39:08;;;;;;;28.42;4.80;;;;;;;3.27;100.00;101645.94;5054414;28;20075;-83
2023/01/10 06:41:33;;;;;;;24.80;4.07;;;;;;;3.23;100.00;101647.88;5052884;28;20051;-81
2023/01/10 06:43:59;;;;;;;29.27;4.18;;;;;;;3.25;100.00;101646.03;5054169;28;20331;-85
2023/01/10 06:46:24;;;;;;;35.00;4.68;;;;;;;3.25;100.00;101655.69;5054114;28;20174;-83
2023/01/10 06:48:49;;;;;;;32.20;5.03;;;;;;;3.31;100.00;101661.53;5054427;28;20104;-82
2023/01/10 06:51:16;;;;;;;18.23;3.72;;;;;;;3.41;100.00;101661.94;5054155;28;20056;-83
2023/01/10 06:53:42;;;;;;;27.50;4.32;;;;;;;3.49;100.00;101665.09;5054161;28;20108;-82
2023/01/10 06:56:08;;;;;;;32.47;5.07;;;;;;;3.50;100.00;101673.81;5053325;28;20382;-80
2023/01/10 06:58:37;;;;;;;29.17;4.47;;;;;;;3.51;100.00;101684.28;5053223;28;20039;-81
2023/01/10 07:01:06;;;;;;;28.13;4.30;;;;;;;3.61;100.00;101696.97;5053394;28;20033;-81
2023/01/10 07:03:32;;;;;;;29.40;3.88;;;;;;;3.70;100.00;101701.81;5052095;28;20033;-79
2023/01/10 07:06:01;;;;;;;18.90;3.15;;;;;;;3.79;100.00;101696.13;5053375;28;20112;-80
2023/01/10 07:08:27;;;;;;;35.65;3.88;;;;;;;3.90;100.00;101706.13;5053277;28;20377;-80
2023/01/10 07:10:52;;;;;;;30.02;4.72;;;;;;;3.99;100.00;101705.66;5054041;28;20032;-88
2023/01/10 07:13:17;;;;;;;31.70;3.35;;;;;;;4.10;100.00;101699.03;5053539;28;20111;-84
2023/01/10 07:15:43;;;;;;;17.50;4.00;;;;;;;4.16;100.00;101706.63;5053774;28;20032;-82
2023/01/10 07:18:08;;;;;;;24.40;3.58;;;;;;;4.20;100.00;101709.00;5053166;28;20022;-84
2023/01/10 07:20:34;;;;;;;25.10;3.97;;;;;;;4.17;100.00;101709.16;5053610;28;20049;-85
2023/01/10 07:23:00;;;;;;;29.80;4.40;;;;;;;4.14;100.00;101711.97;5053468;28;20040;-85
2023/01/10 07:25:28;;;;;;;31.65;4.47;;;;;;;4.18;100.00;101720.56;5053454;28;20033;-85
2023/01/10 07:27:57;;;;;;;28.13;4.13;;;;;;;4.18;100.00;101717.91;5053466;28;20109;-84
2023/01/10 07:30:23;;;;;;;30.92;4.45;;;;;;;4.21;100.00;101723.03;5052878;28;20115;-86
2023/01/10 07:32:53;;;;;;;32.05;4.28;;;;;;;4.22;100.00;101728.25;5053466;28;20038;-84
2023/01/10 07:35:19;;;;;;;20.33;3.75;;;;;;;4.24;100.00;101717.63;5053093;28;20453;-81
2023/01/10 07:37:44;;;;;;;29.45;4.30;;;;;;;4.24;100.00;101723.75;5053186;28;20064;-81
2023/01/10 07:40:10;;;;;;;30.90;4.53;;;;;;;4.30;100.00;101724.34;5052955;28;20086;-80
2023/01/10 07:42:35;;;;;;;27.85;3.28;;;;;;;4.35;100.00;101720.56;5053390;28;20040;-81
2023/01/10 07:45:01;;;;;;;30.95;4.13;;;;;;;4.40;100.00;101715.06;5035279;28;20029;-81
2023/01/10 07:47:27;;;;;;;30.48;4.68;;;;;;;4.45;100.00;101704.28;5053161;28;20079;-81
2023/01/10 07:49:52;;;;;;;27.17;4.30;;;;;;;4.45;100.00;101720.09;5053221;28;20078;-81
2023/01/10 07:52:18;;;;;;;25.73;4.15;;;;;;;4.42;100.00;101721.13;5052767;28;20052;-81
2023/01/10 07:54:44;;;;;;;23.63;3.97;;;;;;;4.39;100.00;101719.50;5052852;28;20029;-80
2023/01/10 07:57:09;;;;;;;31.15;4.45;;;;;;;4.36;100.00;101719.66;5056002;28;20052;-81
2023/01/10 07:59:34;;;;;;;24.42;3.83;;;;;;;4.36;100.00;101719.66;5052608;28;20090;-78
2023/01/10 08:02:00;;;;;;;31.50;5.22;;;;;;;4.34;100.00;101725.91;5053054;28;20489;-78
2023/01/10 08:04:25;;;;;;;29.88;5.10;;;;;;;4.33;100.00;101725.06;5053024;28;20093;-78
2023/01/10 08:06:53;;;;;;;28.70;4.03;;;;;;;4.33;100.00;101721.56;5052869;28;20068;-78
2023/01/10 08:09:18;;;;;;;27.38;3.60;;;;;;;4.29;100.00;101731.41;5053108;28;20025;-78
2023/01/10 08:11:44;;;;;;;25.65;3.60;;;;;;;4.30;100.00;101725.22;5053149;28;20422;-78
2023/01/10 08:14:09;;;;;;;33.63;4.30;;;;;;;4.33;100.00;101737.38;5052898;28;20029;-78
2023/01/10 08:16:34;;;;;;;23.15;3.90;;;;;;;4.32;100.00;101730.41;5053327;28;20465;-79
2023/01/10 08:19:00;;;;;;;23.25;4.80;;;;;;;4.29;100.00;101733.22;5053219;28;20029;-78
2023/01/10 08:21:25;;;;;;;24.63;3.80;;;;;;;4.27;100.00;101727.16;5052506;28;20033;-79
2023/01/10 08:23:50;;;;;;;30.55;4.20;;;;;;;4.26;100.00;101728.94;5053097;28;20029;-78
2023/01/10 08:26:17;;;;;;;24.50;3.78;;;;;;;4.24;100.00;101726.38;5052845;28;20033;-78
2023/01/10 08:28:42;;;;;;;22.75;3.95;;;;;;;4.23;100.00;101729.09;5053196;28;20029;-78
2023/01/10 08:31:08;;;;;;;31.20;4.90;;;;;;;4.20;100.00;101726.63;5052756;28;20055;-78
2023/01/10 08:33:35;;;;;;;22.48;4.03;;;;;;;4.18;100.00;101739.00;5052249;28;20061;-78
2023/01/10 08:36:01;;;;;;;27.05;4.30;;;;;;;4.15;100.00;101731.25;5051882;28;20062;-85
2023/01/10 08:38:27;;;;;;;24.17;4.22;;;;;;;4.15;100.00;101728.59;5052792;28;20033;-83
2023/01/10 08:40:56;;;;;;;26.92;4.20;;;;;;;4.10;100.00;101718.31;5052660;28;20465;-86
2023/01/10 08:43:21;;;;;;;21.05;3.83;;;;;;;4.10;100.00;101722.72;5051168;28;20037;-83
2023/01/10 08:45:48;;;;;;;28.55;4.82;;;;;;;4.06;100.00;101717.63;5052789;28;20098;-85
2023/01/10 08:48:14;;;;;;;27.05;5.20;;;;;;;4.05;100.00;101718.53;5055645;28;20469;-86
2023/01/10 08:50:39;;;;;;;26.42;4.50;;;;;;;4.04;100.00;101708.91;5056515;28;20450;-83
2023/01/10 08:53:05;;;;;;;26.48;4.60;;;;;;;4.08;100.00;101714.91;5055076;28;20045;-82
2023/01/10 08:55:30;;;;;;;30.17;4.35;;;;;;;4.08;100.00;101719.31;5054955;28;20059;-82
2023/01/10 08:57:58;;;;;;;20.30;3.42;;;;;;;4.08;100.00;101714.06;5057011;28;20091;-81
2023/01/10 09:00:24;;;;;;;28.85;4.47;;;;;;;4.09;100.00;101706.09;5056011;28;20029;-81
2023/01/10 09:02:49;;;;;;;26.83;4.30;;;;;;;4.11;100.00;101704.22;5056132;28;20033;-82
2023/01/10 09:05:14;;;;;;;23.58;4.82;;;;;;;4.15;100.00;101691.72;5054412;28;20108;-82
2023/01/10 09:07:40;;;;;;;26.67;4.38;;;;;;;4.18;100.00;101691.56;5056186;28;20111;-84
2023/01/10 09:10:07;;;;;;;28.33;4.47;;;;;;;4.18;100.00;101687.19;5055943;28;20079;-82
2023/01/10 09:15:16;;;;;;;26.88;4.03;;;;;;;4.21;100.00;101680.88;5056014;28;20453;-78
2023/01/10 09:17:41;;;;;;;23.15;4.15;;;;;;;4.24;100.00;101680.75;5055315;28;20037;-79
2023/01/10 09:20:08;;;;;;;25.50;4.00;;;;;;;4.26;100.00;101686.78;5055594;28;20043;-79
2023/01/10 09:22:36;;;;;;;29.48;4.50;;;;;;;4.32;100.00;101685.63;5055548;28;20048;-80
2023/01/10 09:25:02;;;;;;;20.77;3.70;;;;;;;4.36;100.00;101692.44;5054168;28;20460;-80
2023/01/10 09:27:27;;;;;;;23.13;3.88;;;;;;;4.38;100.00;101687.94;5055506;28;20053;-78
2023/01/10 09:29:53;;;;;;;31.30;4.80;;;;;;;4.41;100.00;101686.00;5055654;28;20033;-79
2023/01/10 09:32:18;;;;;;;29.27;4.40;;;;;;;4.46;100.00;101687.56;5055715;28;20058;-81
2023/01/10 09:34:44;;;;;;;27.13;4.80;;;;;;;4.48;100.00;101683.91;5055351;28;20029;-81
2023/01/10 09:37:09;;;;;;;25.77;3.63;;;;;;;4.51;100.00;101696.94;5055270;28;20530;-79
2023/01/10 09:39:34;;;;;;;24.42;4.43;;;;;;;4.54;100.00;101694.13;5055444;28;20048;-81
2023/01/10 09:42:27;;;;;;;28.55;4.32;;;;;;;4.60;100.00;101700.88;5055484;28;20046;-81
2023/01/10 09:45:04;;;;;;;28.40;4.93;;;;;;;4.64;100.00;101691.88;5055166;28;20107;-78
2023/01/10 09:47:55;;;;;;;30.50;4.45;;;;;;;4.67;100.00;101699.63;5055317;28;20523;-78
2023/01/10 09:50:45;;;;;;;31.33;4.50;;;;;;;4.71;100.00;101695.88;5055452;28;20025;-78
2023/01/10 09:53:15;;;;;;;25.33;4.22;;;;;;;4.73;100.00;101694.03;5054952;28;20049;-79
2023/01/10 09:55:42;;;;;;;27.67;4.40;;;;;;;4.79;100.00;101692.84;5055618;28;20438;-85
2023/01/10 09:58:14;;;;;;;35.78;4.50;;;;;;;4.80;100.00;101685.81;5053535;28;20040;-84
2023/01/10 10:00:49;;;;;;;29.70;3.95;;;;;;;4.83;100.00;101675.94;5055119;28;20116;-84
2023/01/10 10:03:35;;;;;;;20.17;3.80;;;;;;;4.86;100.00;101680.22;5055823;28;20029;-84
2023/01/10 10:06:02;;;;;;;27.50;4.88;;;;;;;4.89;100.00;101682.69;5054621;28;20040;-84
2023/01/10 10:08:28;;;;;;;23.38;3.78;;;;;;;4.94;100.00;101678.88;5055060;28;20021;-85
2023/01/10 10:11:14;;;;;;;29.83;4.63;;;;;;;4.92;100.00;101678.06;5055149;28;20037;-86
2023/01/10 10:13:53;;;;;;;26.42;4.70;;;;;;;4.88;100.00;101676.56;5055222;28;20040;-86
2023/01/10 10:16:35;;;;;;;23.92;4.10;;;;;;;4.86;100.00;101675.78;5055810;28;20037;-86
2023/01/10 10:19:10;;;;;;;28.67;4.18;;;;;;;4.88;100.00;101668.66;5055378;28;20060;-85
2023/01/10 10:21:53;;;;;;;24.27;4.40;;;;;;;4.84;100.00;101674.16;5055181;28;20126;-85
2023/01/10 10:24:25;;;;;;;23.60;3.60;;;;;;;4.83;100.00;101667.19;5055063;28;20060;-86
2023/01/10 10:27:07;;;;;;;31.45;3.95;;;;;;;4.80;100.00;101655.00;5054533;28;20036;-86
2023/01/10 10:29:50;;;;;;;26.17;4.25;;;;;;;4.75;100.00;101655.25;5055450;28;20029;-84
2023/01/10 10:32:29;;;;;;;24.25;4.18;;;;;;;4.74;100.00;101658.81;5053909;28;20028;-85
2023/01/10 10:35:25;;;;;;;24.90;4.50;;;;;;;4.79;100.00;101657.72;5054647;28;20025;-85
2023/01/10 10:37:53;;;;;;;27.88;4.85;;;;;;;4.75;100.00;101642.06;5046847;28;20474;-84
2023/01/10 10:40:21;;;;;;;33.20;4.63;;;;;;;4.83;100.00;101654.00;5053764;28;20029;-83
2023/01/10 10:42:55;;;;;;;21.25;4.03;;;;;;;4.80;100.00;101631.28;5054455;28;20095;-83
2023/01/10 10:46:09;;;;;;;15.02;3.35;;;;;;;4.81;100.00;101629.47;5054499;28;20021;-84
2023/01/10 10:48:58;;;;;;;24.60;4.45;;;;;;;4.86;100.00;101616.91;5044920;28;20045;-84
2023/01/10 10:51:37;;;;;;;24.67;4.40;;;;;;;4.84;100.00;101611.72;5053591;28;20131;-84
2023/01/10 10:54:05;;;;;;;34.35;4.82;;;;;;;4.84;100.00;101621.44;5054442;28;20450;-84
2023/01/10 10:56:31;;;;;;;26.92;4.20;;;;;;;4.87;100.00;101610.72;5054423;28;20466;-86
2023/01/10 10:58:58;;;;;;;20.80;4.15;;;;;;;4.88;100.00;101607.13;5054811;28;20029;-83
2023/01/10 11:01:24;;;;;;;21.60;3.80;;;;;;;4.87;100.00;101608.91;5054128;28;20029;-85
2023/01/10 11:04:04;;;;;;;19.92;4.03;;;;;;;4.90;100.00;101603.47;5054063;28;20029;-85
2023/01/10 11:06:31;;;;;;;22.15;4.50;;;;;;;4.92;100.00;101598.97;5053880;28;20032;-84
2023/01/10 11:09:01;;;;;;;22.65;3.15;;;;;;;4.94;100.00;101604.16;5054186;28;20462;-84
2023/01/10 11:11:28;;;;;;;23.00;4.57;;;;;;;4.98;100.00;101600.41;5054865;28;20048;-84
2023/01/10 11:13:59;;;;;;;19.13;4.57;;;;;;;4.93;100.00;101592.75;5054170;28;20158;-84
2023/01/10 11:16:26;;;;;;;23.35;3.80;;;;;;;4.99;100.00;101586.31;5055266;28;20029;-83
2023/01/10 11:19:29;;;;;;;17.48;3.75;;;;;;;4.98;100.00;101583.75;5057358;28;20068;-83
2023/01/10 11:22:00;;;;;;;27.60;3.83;;;;;;;4.98;100.00;101589.03;5034058;28;20041;-84
2023/01/10 11:24:31;;;;;;;26.73;3.90;;;;;;;4.97;100.00;101580.28;5054401;28;20114;-84
2023/01/10 11:26:58;;;;;;;31.38;4.75;;;;;;;4.99;100.00;101567.84;5055196;28;20032;-84
2023/01/10 11:29:24;;;;;;;27.38;4.45;;;;;;;5.00;100.00;101566.03;5056571;28;20060;-84
2023/01/10 11:31:52;;;;;;;20.50;4.75;;;;;;;5.00;100.00;101568.69;5055276;28;20025;-83
2023/01/10 11:34:34;;;;;;;18.95;4.28;;;;;;;4.99;100.00;101570.47;5054089;28;20075;-83
2023/01/10 11:37:27;;;;;;;23.67;4.60;;;;;;;5.01;100.00;101557.19;5054388;28;20033;-84
2023/01/10 11:40:09;;;;;;;30.02;4.43;;;;;;;5.04;100.00;101554.38;5048547;28;20033;-83
2023/01/10 11:42:34;;;;;;;35.92;4.95;;;;;;;5.04;100.00;101539.41;5053031;28;20036;-83